createdAt,value
2022-12-03T00:03:53.655Z,34.93
2022-12-03T00:13:54.987Z,34.49
2022-12-03T00:23:56.212Z,35.14
2022-12-03T00:33:57.433Z,34.42
2022-12-03T00:43:58.666Z,34.93
2022-12-03T00:54:00.025Z,35.05
2022-12-03T01:04:01.299Z,34.78
2022-12-03T01:14:02.539Z,34.98
2022-12-03T01:24:03.803Z,34.77
2022-12-03T01:34:05.256Z,34.74
2022-12-03T01:44:06.806Z,35.20
2022-12-03T01:54:08.154Z,35.46
2022-12-03T02:04:09.859Z,35.10
2022-12-03T02:14:11.203Z,35.33
2022-12-03T02:24:12.456Z,34.73
2022-12-03T02:34:13.702Z,34.53
2022-12-03T02:44:14.964Z,34.59
2022-12-03T02:54:16.247Z,35.16
2022-12-03T03:04:17.495Z,34.61
2022-12-03T03:14:18.730Z,34.99
2022-12-03T03:24:19.966Z,35.04
2022-12-03T03:34:21.211Z,35.31
2022-12-03T03:44:22.493Z,35.01
2022-12-03T03:54:23.791Z,35.25
2022-12-03T04:04:25.088Z,35.21
2022-12-03T04:14:26.356Z,35.42
2022-12-03T04:24:27.590Z,34.91
2022-12-03T04:34:28.850Z,35.23
2022-12-03T04:44:30.058Z,35.11
2022-12-03T04:54:31.337Z,35.30
2022-12-03T05:04:47.674Z,35.01
2022-12-03T05:14:48.896Z,35.31
2022-12-03T05:24:50.136Z,35.18
2022-12-03T05:34:51.599Z,35.60
2022-12-03T05:44:53.331Z,35.00
2022-12-03T05:54:54.907Z,35.34
2022-12-03T06:04:56.531Z,35.13
2022-12-03T06:14:57.813Z,35.28
2022-12-03T06:25:03.538Z,34.86
2022-12-03T06:35:07.581Z,35.54
2022-12-03T06:45:08.858Z,35.20
2022-12-03T06:55:10.114Z,36.07
2022-12-03T07:05:11.372Z,36.30
2022-12-03T07:15:12.684Z,36.75
2022-12-03T09:20:31.242Z,37.84
2022-12-03T09:30:32.506Z,37.52
2022-12-03T09:40:33.877Z,37.38
2022-12-03T09:50:35.145Z,37.03
2022-12-03T10:00:36.397Z,37.12
2022-12-03T10:10:37.775Z,36.61
2022-12-03T10:20:39.113Z,36.63
2022-12-03T10:30:40.439Z,36.32
2022-12-03T10:40:41.730Z,36.05
2022-12-03T10:50:42.948Z,35.87
2022-12-03T11:00:54.508Z,35.73
2022-12-03T11:11:14.479Z,35.60
2022-12-03T11:21:21.906Z,35.79
2022-12-03T11:31:29.920Z,35.72
2022-12-03T11:41:37.887Z,35.38
2022-12-03T11:51:45.856Z,35.68
2022-12-03T12:01:54.813Z,35.96
2022-12-03T12:12:02.864Z,35.43
2022-12-03T12:22:10.837Z,35.27
2022-12-03T12:32:18.485Z,35.64
2022-12-03T12:42:27.261Z,35.30
2022-12-03T12:52:38.642Z,35.72
2022-12-03T13:02:43.072Z,35.44
2022-12-03T13:12:50.918Z,35.86
2022-12-03T13:22:52.739Z,35.93
2022-12-03T13:32:54.544Z,35.72
2022-12-03T13:42:55.867Z,35.97
2022-12-03T13:52:57.125Z,35.51
2022-12-03T14:02:59.278Z,35.42
2022-12-03T14:13:00.512Z,34.94
2022-12-03T14:23:01.805Z,35.35
2022-12-03T14:33:03.081Z,35.17
2022-12-03T14:43:04.321Z,35.22
2022-12-03T14:53:05.915Z,34.99
2022-12-03T15:03:07.419Z,34.86
2022-12-03T15:13:08.810Z,34.84
2022-12-03T15:23:14.277Z,35.07
2022-12-03T15:33:16.017Z,35.11
2022-12-03T15:43:17.317Z,35.10
2022-12-03T15:53:18.615Z,35.36
2022-12-03T16:03:19.920Z,35.45
2022-12-03T16:13:21.202Z,34.84
2022-12-03T16:23:22.455Z,34.98
2022-12-03T16:33:27.548Z,35.15
2022-12-03T16:43:28.944Z,34.62
2022-12-03T16:53:30.217Z,34.53
2022-12-03T17:03:34.035Z,34.58
2022-12-03T17:13:35.716Z,34.35
2022-12-03T17:23:37.042Z,34.03
2022-12-03T17:33:38.298Z,33.78
2022-12-03T17:43:39.587Z,34.21
2022-12-03T17:53:40.849Z,33.62
2022-12-03T18:03:42.164Z,33.55
2022-12-03T18:13:43.559Z,34.24
2022-12-03T18:23:44.788Z,34.17
2022-12-03T18:33:46.034Z,33.80
2022-12-03T18:43:47.269Z,33.72
2022-12-03T18:53:48.522Z,33.35
2022-12-03T19:03:49.783Z,33.93
2022-12-03T19:13:51.105Z,34.11
2022-12-03T19:24:22.778Z,33.79
2022-12-03T19:34:13.828Z,34.07
2022-12-03T19:44:15.074Z,34.26
2022-12-03T19:54:16.327Z,34.03
2022-12-03T20:04:17.565Z,33.83
2022-12-03T20:14:18.832Z,33.73
2022-12-03T20:24:20.098Z,33.86
2022-12-03T20:34:21.360Z,33.66
2022-12-03T20:44:22.658Z,33.43
2022-12-03T20:54:23.929Z,33.42
2022-12-03T21:04:25.174Z,33.57
2022-12-03T21:14:26.455Z,33.76
2022-12-03T21:24:27.813Z,34.04
2022-12-03T21:34:35.511Z,33.40
2022-12-03T21:44:37.326Z,33.50
2022-12-03T21:54:38.777Z,33.05
2022-12-03T22:04:40.088Z,33.00
2022-12-03T22:14:41.346Z,33.01
2022-12-03T22:24:42.657Z,33.14
2022-12-03T22:34:43.986Z,32.96
2022-12-03T22:44:45.282Z,32.68
2022-12-03T22:54:46.546Z,32.48
2022-12-03T23:04:47.882Z,33.21
2022-12-03T23:14:49.180Z,33.00
2022-12-03T23:24:50.464Z,32.63
2022-12-03T23:34:51.808Z,32.30
2022-12-03T23:44:53.146Z,33.22
2022-12-03T23:54:54.388Z,33.16
